sensor_id;sensor_type;location;lat;lon;timestamp;pressure;altitude;pressure_sealevel;temperature;humidity
1926;BME280;964;42.606;23.588;2022-12-29T00:01:22;95437.00;;;21.75;30.58
1926;BME280;964;42.606;23.588;2022-12-29T00:03:48;95431.53;;;22.60;29.45
1926;BME280;964;42.606;23.588;2022-12-29T00:06:15;95428.09;;;21.81;30.70
1926;BME280;964;42.606;23.588;2022-12-29T00:08:42;95420.84;;;23.10;28.57
1926;BME280;964;42.606;23.588;2022-12-29T00:11:10;95415.00;;;22.55;29.21
1926;BME280;964;42.606;23.588;2022-12-29T00:13:38;95429.88;;;21.50;30.71
1926;BME280;964;42.606;23.588;2022-12-29T00:16:26;95443.53;;;20.46;32.73
1926;BME280;964;42.606;23.588;2022-12-29T00:18:53;95435.91;;;21.07;31.87
1926;BME280;964;42.606;23.588;2022-12-29T00:21:21;95428.41;;;22.28;30.19
1926;BME280;964;42.606;23.588;2022-12-29T00:24:06;95426.72;;;23.05;28.78
1926;BME280;964;42.606;23.588;2022-12-29T00:26:54;95431.19;;;22.88;28.50
1926;BME280;964;42.606;23.588;2022-12-29T00:29:40;95441.19;;;21.31;31.14
1926;BME280;964;42.606;23.588;2022-12-29T00:32:26;95448.44;;;20.72;32.46
1926;BME280;964;42.606;23.588;2022-12-29T00:35:14;95450.28;;;20.82;32.13
1926;BME280;964;42.606;23.588;2022-12-29T00:37:44;95448.34;;;20.90;32.17
1926;BME280;964;42.606;23.588;2022-12-29T00:40:29;95442.88;;;21.00;31.91
1926;BME280;964;42.606;23.588;2022-12-29T00:43:13;95446.88;;;20.71;32.74
1926;BME280;964;42.606;23.588;2022-12-29T00:45:57;95444.50;;;20.87;32.12
1926;BME280;964;42.606;23.588;2022-12-29T00:48:25;95449.00;;;19.75;33.82
1926;BME280;964;42.606;23.588;2022-12-29T00:51:06;95450.88;;;20.28;33.18
1926;BME280;964;42.606;23.588;2022-12-29T00:53:33;95449.41;;;19.70;34.38
1926;BME280;964;42.606;23.588;2022-12-29T00:56:00;95445.53;;;20.03;33.64
1926;BME280;964;42.606;23.588;2022-12-29T00:58:29;95450.09;;;19.25;35.30
1926;BME280;964;42.606;23.588;2022-12-29T01:01:01;95443.19;;;20.19;33.42
1926;BME280;964;42.606;23.588;2022-12-29T01:03:30;95429.91;;;20.81;32.78
1926;BME280;964;42.606;23.588;2022-12-29T01:05:56;95442.69;;;20.63;32.62
1926;BME280;964;42.606;23.588;2022-12-29T01:08:26;95434.19;;;21.41;31.39
1926;BME280;964;42.606;23.588;2022-12-29T01:11:03;95436.97;;;21.30;31.05
1926;BME280;964;42.606;23.588;2022-12-29T01:13:30;95450.94;;;19.61;34.15
1926;BME280;964;42.606;23.588;2022-12-29T01:15:56;95434.59;;;20.63;32.96
1926;BME280;964;42.606;23.588;2022-12-29T01:18:24;95424.31;;;21.24;32.07
1926;BME280;964;42.606;23.588;2022-12-29T01:20:58;95432.44;;;20.01;33.85
1926;BME280;964;42.606;23.588;2022-12-29T01:23:25;95420.03;;;21.78;31.34
1926;BME280;964;42.606;23.588;2022-12-29T01:25:51;95422.31;;;20.55;32.47
1926;BME280;964;42.606;23.588;2022-12-29T01:28:18;95426.84;;;20.79;32.46
1926;BME280;964;42.606;23.588;2022-12-29T01:30:45;95408.16;;;21.17;31.80
1926;BME280;964;42.606;23.588;2022-12-29T01:33:11;95432.44;;;20.08;33.22
1926;BME280;964;42.606;23.588;2022-12-29T01:35:38;95421.56;;;20.51;32.76
1926;BME280;964;42.606;23.588;2022-12-29T01:38:06;95421.09;;;20.70;32.70
1926;BME280;964;42.606;23.588;2022-12-29T01:40:33;95413.03;;;20.70;32.63
1926;BME280;964;42.606;23.588;2022-12-29T01:42:59;95426.31;;;19.20;34.83
1926;BME280;964;42.606;23.588;2022-12-29T01:45:26;95407.38;;;20.47;33.07
1926;BME280;964;42.606;23.588;2022-12-29T01:47:56;95417.41;;;20.39;33.30
1926;BME280;964;42.606;23.588;2022-12-29T01:50:26;95413.88;;;20.49;32.94
1926;BME280;964;42.606;23.588;2022-12-29T01:52:57;95408.53;;;20.42;33.21
1926;BME280;964;42.606;23.588;2022-12-29T01:55:29;95414.81;;;19.72;33.75
1926;BME280;964;42.606;23.588;2022-12-29T01:57:59;95410.09;;;20.26;33.12
1926;BME280;964;42.606;23.588;2022-12-29T02:00:27;95397.94;;;21.86;30.59
1926;BME280;964;42.606;23.588;2022-12-29T02:02:54;95401.09;;;22.22;29.89
1926;BME280;964;42.606;23.588;2022-12-29T02:05:27;95396.56;;;21.27;31.15
1926;BME280;964;42.606;23.588;2022-12-29T02:07:55;95400.00;;;22.50;29.09
1926;BME280;964;42.606;23.588;2022-12-29T02:10:23;95393.78;;;22.53;28.73
1926;BME280;964;42.606;23.588;2022-12-29T02:12:52;95398.22;;;22.70;28.80
1926;BME280;964;42.606;23.588;2022-12-29T02:15:26;95395.41;;;22.47;28.76
1926;BME280;964;42.606;23.588;2022-12-29T02:18:06;95393.69;;;22.60;28.70
1926;BME280;964;42.606;23.588;2022-12-29T02:20:59;95399.41;;;22.35;29.09
1926;BME280;964;42.606;23.588;2022-12-29T02:23:52;95399.50;;;21.87;28.81
1926;BME280;964;42.606;23.588;2022-12-29T02:26:44;95398.81;;;21.76;30.15
1926;BME280;964;42.606;23.588;2022-12-29T02:29:25;95409.41;;;19.86;33.08
1926;BME280;964;42.606;23.588;2022-12-29T02:32:05;95402.03;;;20.19;32.67
1926;BME280;964;42.606;23.588;2022-12-29T02:34:42;95403.19;;;20.32;32.60
1926;BME280;964;42.606;23.588;2022-12-29T02:37:19;95394.66;;;20.54;32.70
1926;BME280;964;42.606;23.588;2022-12-29T02:39:55;95405.22;;;19.61;33.82
1926;BME280;964;42.606;23.588;2022-12-29T02:42:29;95398.50;;;20.50;32.66
1926;BME280;964;42.606;23.588;2022-12-29T02:45:03;95396.78;;;20.84;32.18
1926;BME280;964;42.606;23.588;2022-12-29T02:47:36;95386.84;;;21.81;31.10
1926;BME280;964;42.606;23.588;2022-12-29T02:50:08;95392.41;;;21.63;30.31
1926;BME280;964;42.606;23.588;2022-12-29T02:52:42;95394.44;;;21.89;29.36
1926;BME280;964;42.606;23.588;2022-12-29T02:55:10;95399.97;;;21.75;29.84
1926;BME280;964;42.606;23.588;2022-12-29T02:57:36;95389.50;;;22.25;29.04
1926;BME280;964;42.606;23.588;2022-12-29T03:00:05;95388.19;;;22.37;29.04
1926;BME280;964;42.606;23.588;2022-12-29T03:05:40;95376.63;;;22.03;29.09
1926;BME280;964;42.606;23.588;2022-12-29T03:08:15;95380.91;;;21.56;29.45
1926;BME280;964;42.606;23.588;2022-12-29T03:10:48;95388.53;;;21.64;29.26
1926;BME280;964;42.606;23.588;2022-12-29T03:13:23;95383.91;;;21.65;29.31
1926;BME280;964;42.606;23.588;2022-12-29T03:16:14;95387.69;;;21.74;29.35
1926;BME280;964;42.606;23.588;2022-12-29T03:18:52;95387.38;;;21.14;30.44
1926;BME280;964;42.606;23.588;2022-12-29T03:21:28;95394.25;;;21.25;30.81
1926;BME280;964;42.606;23.588;2022-12-29T03:24:12;95394.34;;;21.11;31.02
1926;BME280;964;42.606;23.588;2022-12-29T03:26:41;95395.66;;;20.78;31.72
1926;BME280;964;42.606;23.588;2022-12-29T03:29:10;95394.44;;;20.93;32.24
1926;BME280;964;42.606;23.588;2022-12-29T03:31:38;95384.44;;;20.90;32.01
1926;BME280;964;42.606;23.588;2022-12-29T03:34:07;95388.28;;;21.48;31.47
1926;BME280;964;42.606;23.588;2022-12-29T03:36:40;95386.34;;;21.52;30.94
1926;BME280;964;42.606;23.588;2022-12-29T03:39:10;95375.25;;;21.84;30.99
1926;BME280;964;42.606;23.588;2022-12-29T03:41:41;95376.31;;;21.52;30.99
1926;BME280;964;42.606;23.588;2022-12-29T03:44:10;95375.47;;;21.59;31.19
1926;BME280;964;42.606;23.588;2022-12-29T03:46:37;95371.56;;;21.67;31.15
1926;BME280;964;42.606;23.588;2022-12-29T03:49:03;95380.81;;;21.18;31.95
1926;BME280;964;42.606;23.588;2022-12-29T03:51:31;95381.34;;;20.92;32.10
1926;BME280;964;42.606;23.588;2022-12-29T03:53:58;95381.13;;;21.31;31.59
1926;BME280;964;42.606;23.588;2022-12-29T03:56:25;95382.34;;;21.23;31.88
1926;BME280;964;42.606;23.588;2022-12-29T03:58:51;95382.91;;;20.89;31.78
1926;BME280;964;42.606;23.588;2022-12-29T04:01:18;95388.03;;;20.66;32.29
1926;BME280;964;42.606;23.588;2022-12-29T04:03:45;95386.00;;;19.69;33.42
1926;BME280;964;42.606;23.588;2022-12-29T04:06:11;95386.75;;;19.94;33.71
1926;BME280;964;42.606;23.588;2022-12-29T04:08:39;95395.63;;;19.42;34.52
1926;BME280;964;42.606;23.588;2022-12-29T04:11:06;95382.47;;;20.07;33.42
1926;BME280;964;42.606;23.588;2022-12-29T04:13:33;95381.78;;;19.68;34.04
1926;BME280;964;42.606;23.588;2022-12-29T04:16:00;95377.91;;;19.90;33.35
1926;BME280;964;42.606;23.588;2022-12-29T04:18:26;95390.97;;;19.10;34.76
1926;BME280;964;42.606;23.588;2022-12-29T04:20:53;95394.81;;;19.09;35.01
1926;BME280;964;42.606;23.588;2022-12-29T04:23:30;95387.16;;;19.68;33.85
1926;BME280;964;42.606;23.588;2022-12-29T04:25:59;95387.91;;;19.79;33.80
1926;BME280;964;42.606;23.588;2022-12-29T04:28:26;95391.34;;;19.94;33.49
1926;BME280;964;42.606;23.588;2022-12-29T04:30:52;95386.63;;;21.13;31.71
1926;BME280;964;42.606;23.588;2022-12-29T04:33:20;95387.09;;;21.52;31.00
1926;BME280;964;42.606;23.588;2022-12-29T04:35:47;95381.34;;;22.29;30.04
1926;BME280;964;42.606;23.588;2022-12-29T04:38:14;95380.84;;;22.37;29.46
1926;BME280;964;42.606;23.588;2022-12-29T04:40:42;95384.88;;;22.26;29.45
1926;BME280;964;42.606;23.588;2022-12-29T04:43:11;95389.94;;;22.54;28.57
1926;BME280;964;42.606;23.588;2022-12-29T04:45:38;95387.56;;;22.56;28.66
1926;BME280;964;42.606;23.588;2022-12-29T04:48:05;95399.66;;;22.78;28.24
1926;BME280;964;42.606;23.588;2022-12-29T04:50:32;95394.50;;;22.57;28.20
1926;BME280;964;42.606;23.588;2022-12-29T04:52:58;95422.25;;;21.86;29.20
1926;BME280;964;42.606;23.588;2022-12-29T04:55:25;95422.25;;;21.86;28.70
1926;BME280;964;42.606;23.588;2022-12-29T04:57:52;95422.06;;;22.11;28.63
1926;BME280;964;42.606;23.588;2022-12-29T05:00:20;95426.22;;;21.71;29.25
1926;BME280;964;42.606;23.588;2022-12-29T05:02:47;95424.84;;;21.56;28.82
1926;BME280;964;42.606;23.588;2022-12-29T05:05:14;95430.88;;;21.71;28.86
1926;BME280;964;42.606;23.588;2022-12-29T05:07:40;95423.09;;;21.76;29.31
1926;BME280;964;42.606;23.588;2022-12-29T05:10:08;95425.00;;;21.79;29.09
1926;BME280;964;42.606;23.588;2022-12-29T05:12:36;95425.16;;;21.03;29.91
1926;BME280;964;42.606;23.588;2022-12-29T05:15:04;95432.50;;;20.95;30.01
1926;BME280;964;42.606;23.588;2022-12-29T05:17:32;95432.84;;;21.12;29.61
1926;BME280;964;42.606;23.588;2022-12-29T05:19:59;95422.91;;;20.94;30.14
1926;BME280;964;42.606;23.588;2022-12-29T05:22:26;95439.97;;;20.63;30.42
1926;BME280;964;42.606;23.588;2022-12-29T05:24:53;95427.66;;;20.73;30.31
1926;BME280;964;42.606;23.588;2022-12-29T05:27:19;95450.16;;;19.95;31.06
1926;BME280;964;42.606;23.588;2022-12-29T05:29:46;95448.97;;;20.18;30.76
1926;BME280;964;42.606;23.588;2022-12-29T05:32:13;95436.19;;;20.53;30.18
1926;BME280;964;42.606;23.588;2022-12-29T05:34:41;95428.53;;;20.45;30.12
1926;BME280;964;42.606;23.588;2022-12-29T05:37:07;95437.78;;;20.30;30.50
1926;BME280;964;42.606;23.588;2022-12-29T05:39:34;95439.31;;;20.24;30.52
1926;BME280;964;42.606;23.588;2022-12-29T05:42:00;95445.53;;;19.50;31.53
1926;BME280;964;42.606;23.588;2022-12-29T05:44:27;95443.94;;;20.20;30.88
1926;BME280;964;42.606;23.588;2022-12-29T05:46:54;95448.09;;;20.56;30.59
1926;BME280;964;42.606;23.588;2022-12-29T05:49:20;95441.84;;;20.73;29.98
1926;BME280;964;42.606;23.588;2022-12-29T05:51:48;95446.63;;;20.30;30.50
1926;BME280;964;42.606;23.588;2022-12-29T05:54:15;95440.09;;;20.35;30.77
1926;BME280;964;42.606;23.588;2022-12-29T05:56:42;95442.63;;;20.77;30.23
1926;BME280;964;42.606;23.588;2022-12-29T05:59:11;95443.75;;;20.83;30.50
1926;BME280;964;42.606;23.588;2022-12-29T06:01:38;95433.47;;;21.33;29.56
1926;BME280;964;42.606;23.588;2022-12-29T06:04:04;95438.78;;;21.44;29.74
1926;BME280;964;42.606;23.588;2022-12-29T06:06:31;95437.81;;;21.68;29.40
1926;BME280;964;42.606;23.588;2022-12-29T06:08:59;95429.19;;;21.87;28.84
1926;BME280;964;42.606;23.588;2022-12-29T06:11:26;95440.00;;;21.84;29.19
1926;BME280;964;42.606;23.588;2022-12-29T06:13:52;95435.13;;;22.13;29.02
1926;BME280;964;42.606;23.588;2022-12-29T06:16:19;95440.31;;;22.34;28.78
1926;BME280;964;42.606;23.588;2022-12-29T06:18:45;95432.28;;;22.61;28.90
1926;BME280;964;42.606;23.588;2022-12-29T06:21:12;95438.06;;;22.29;28.80
1926;BME280;964;42.606;23.588;2022-12-29T06:23:39;95442.75;;;22.21;29.00
1926;BME280;964;42.606;23.588;2022-12-29T06:26:07;95440.13;;;22.48;29.28
1926;BME280;964;42.606;23.588;2022-12-29T06:28:34;95439.78;;;22.46;28.83
1926;BME280;964;42.606;23.588;2022-12-29T06:31:00;95447.44;;;22.85;28.48
1926;BME280;964;42.606;23.588;2022-12-29T06:33:28;95441.03;;;23.06;28.31
1926;BME280;964;42.606;23.588;2022-12-29T06:35:54;95446.22;;;23.20;28.65
1926;BME280;964;42.606;23.588;2022-12-29T06:38:21;95440.50;;;23.41;28.55
1926;BME280;964;42.606;23.588;2022-12-29T06:40:48;95453.16;;;23.21;28.22
1926;BME280;964;42.606;23.588;2022-12-29T06:43:16;95443.22;;;23.41;27.96
1926;BME280;964;42.606;23.588;2022-12-29T06:45:43;95449.56;;;23.01;28.51
1926;BME280;964;42.606;23.588;2022-12-29T06:48:09;95450.00;;;23.26;28.36
1926;BME280;964;42.606;23.588;2022-12-29T06:50:36;95447.88;;;23.67;28.03
1926;BME280;964;42.606;23.588;2022-12-29T06:53:02;95455.16;;;23.70;27.59
1926;BME280;964;42.606;23.588;2022-12-29T06:55:29;95456.53;;;23.55;27.65
1926;BME280;964;42.606;23.588;2022-12-29T06:57:57;95452.63;;;24.06;27.31
1926;BME280;964;42.606;23.588;2022-12-29T07:00:25;95460.25;;;24.15;27.48
1926;BME280;964;42.606;23.588;2022-12-29T07:02:52;95475.75;;;24.11;27.14
1926;BME280;964;42.606;23.588;2022-12-29T07:05:20;95453.56;;;25.18;26.59
1926;BME280;964;42.606;23.588;2022-12-29T07:07:47;95453.47;;;26.22;25.49
1926;BME280;964;42.606;23.588;2022-12-29T07:10:14;95432.00;;;27.73;24.44
1926;BME280;964;42.606;23.588;2022-12-29T07:12:40;95429.88;;;28.71;23.42
1926;BME280;964;42.606;23.588;2022-12-29T07:15:07;95430.97;;;29.76;21.78
1926;BME280;964;42.606;23.588;2022-12-29T07:17:35;95427.91;;;30.59;21.40
1926;BME280;964;42.606;23.588;2022-12-29T07:20:03;95417.47;;;31.59;19.85
1926;BME280;964;42.606;23.588;2022-12-29T07:22:29;95416.38;;;31.90;19.47
1926;BME280;964;42.606;23.588;2022-12-29T07:24:56;95416.72;;;32.69;19.62
1926;BME280;964;42.606;23.588;2022-12-29T07:27:23;95409.06;;;33.81;18.57
1926;BME280;964;42.606;23.588;2022-12-29T07:29:49;95409.63;;;34.66;17.68
1926;BME280;964;42.606;23.588;2022-12-29T07:32:16;95411.22;;;35.29;16.91
1926;BME280;964;42.606;23.588;2022-12-29T07:34:44;95409.16;;;35.24;16.88
1926;BME280;964;42.606;23.588;2022-12-29T07:37:12;95409.28;;;35.78;16.85
1926;BME280;964;42.606;23.588;2022-12-29T07:39:40;95414.84;;;35.47;16.94
1926;BME280;964;42.606;23.588;2022-12-29T07:42:07;95419.22;;;35.27;17.37
1926;BME280;964;42.606;23.588;2022-12-29T07:44:33;95413.09;;;35.86;17.16
1926;BME280;964;42.606;23.588;2022-12-29T07:47:01;95413.69;;;36.01;16.83
1926;BME280;964;42.606;23.588;2022-12-29T07:49:28;95405.66;;;36.03;16.51
1926;BME280;964;42.606;23.588;2022-12-29T07:51:56;95412.78;;;35.41;16.91
1926;BME280;964;42.606;23.588;2022-12-29T07:54:23;95409.63;;;35.91;16.68
1926;BME280;964;42.606;23.588;2022-12-29T07:56:50;95409.34;;;35.83;16.73
1926;BME280;964;42.606;23.588;2022-12-29T07:59:17;95396.31;;;36.43;16.14
1926;BME280;964;42.606;23.588;2022-12-29T08:01:44;95398.72;;;37.22;16.01
1926;BME280;964;42.606;23.588;2022-12-29T08:04:10;95402.00;;;37.04;16.07
1926;BME280;964;42.606;23.588;2022-12-29T08:06:37;95406.25;;;37.05;15.59
1926;BME280;964;42.606;23.588;2022-12-29T08:09:05;95411.53;;;37.25;15.87
1926;BME280;964;42.606;23.588;2022-12-29T08:11:32;95416.47;;;36.66;15.88
1926;BME280;964;42.606;23.588;2022-12-29T08:13:59;95409.69;;;36.72;16.56
1926;BME280;964;42.606;23.588;2022-12-29T08:16:25;95411.75;;;37.72;15.96
1926;BME280;964;42.606;23.588;2022-12-29T08:18:52;95420.81;;;36.13;16.75
1926;BME280;964;42.606;23.588;2022-12-29T08:21:19;95410.97;;;36.88;15.74
1926;BME280;964;42.606;23.588;2022-12-29T08:23:45;95410.97;;;36.77;16.37
1926;BME280;964;42.606;23.588;2022-12-29T08:26:14;95411.28;;;37.18;15.92
1926;BME280;964;42.606;23.588;2022-12-29T08:28:41;95411.53;;;37.70;15.35
1926;BME280;964;42.606;23.588;2022-12-29T08:31:11;95416.00;;;37.95;15.00
1926;BME280;964;42.606;23.588;2022-12-29T08:33:37;95416.06;;;37.62;15.61
1926;BME280;964;42.606;23.588;2022-12-29T08:36:06;95407.69;;;38.06;15.32
1926;BME280;964;42.606;23.588;2022-12-29T08:38:33;95410.97;;;37.88;15.64
1926;BME280;964;42.606;23.588;2022-12-29T08:41:00;95409.44;;;38.09;14.86
1926;BME280;964;42.606;23.588;2022-12-29T08:43:29;95405.81;;;38.25;15.15
1926;BME280;964;42.606;23.588;2022-12-29T08:45:57;95407.91;;;38.08;15.36
1926;BME280;964;42.606;23.588;2022-12-29T08:48:23;95419.03;;;36.86;16.19
1926;BME280;964;42.606;23.588;2022-12-29T08:50:50;95415.53;;;35.73;16.70
1926;BME280;964;42.606;23.588;2022-12-29T08:53:17;95402.22;;;37.40;15.80
1926;BME280;964;42.606;23.588;2022-12-29T08:55:44;95403.69;;;37.96;15.23
1926;BME280;964;42.606;23.588;2022-12-29T08:58:11;95402.94;;;37.79;15.75
1926;BME280;964;42.606;23.588;2022-12-29T09:00:42;95394.19;;;37.25;16.28
1926;BME280;964;42.606;23.588;2022-12-29T09:03:08;95392.09;;;38.61;15.27
1926;BME280;964;42.606;23.588;2022-12-29T09:05:35;95394.94;;;37.70;15.05
1926;BME280;964;42.606;23.588;2022-12-29T09:08:02;95396.78;;;38.25;14.87
1926;BME280;964;42.606;23.588;2022-12-29T09:10:28;95396.75;;;38.31;15.10
1926;BME280;964;42.606;23.588;2022-12-29T09:12:55;95385.88;;;37.64;15.74
1926;BME280;964;42.606;23.588;2022-12-29T09:15:22;95389.38;;;37.70;15.39
1926;BME280;964;42.606;23.588;2022-12-29T09:17:50;95390.44;;;37.11;15.99
1926;BME280;964;42.606;23.588;2022-12-29T09:20:18;95385.03;;;37.91;15.60
1926;BME280;964;42.606;23.588;2022-12-29T09:22:45;95381.63;;;37.52;15.54
1926;BME280;964;42.606;23.588;2022-12-29T09:25:13;95389.38;;;37.81;15.55
1926;BME280;964;42.606;23.588;2022-12-29T09:27:40;95389.38;;;37.70;15.75
1926;BME280;964;42.606;23.588;2022-12-29T09:30:09;95381.38;;;37.50;15.99
1926;BME280;964;42.606;23.588;2022-12-29T09:32:37;95376.88;;;36.15;16.62
1926;BME280;964;42.606;23.588;2022-12-29T09:35:05;95374.06;;;37.58;15.84
1926;BME280;964;42.606;23.588;2022-12-29T09:37:32;95367.94;;;37.87;15.35
1926;BME280;964;42.606;23.588;2022-12-29T09:39:59;95378.88;;;37.18;15.77
1926;BME280;964;42.606;23.588;2022-12-29T09:42:29;95383.50;;;36.46;16.45
1926;BME280;964;42.606;23.588;2022-12-29T09:45:04;95373.06;;;36.83;16.43
1926;BME280;964;42.606;23.588;2022-12-29T09:47:35;95369.75;;;36.57;16.23
1926;BME280;964;42.606;23.588;2022-12-29T09:50:09;95368.94;;;36.45;17.10
1926;BME280;964;42.606;23.588;2022-12-29T09:52:40;95369.56;;;37.10;15.82
1926;BME280;964;42.606;23.588;2022-12-29T09:55:12;95362.53;;;37.04;16.35
1926;BME280;964;42.606;23.588;2022-12-29T09:57:45;95371.13;;;36.13;16.91
1926;BME280;964;42.606;23.588;2022-12-29T10:00:15;95360.97;;;36.58;16.46
1926;BME280;964;42.606;23.588;2022-12-29T10:02:44;95356.38;;;36.44;16.51
1926;BME280;964;42.606;23.588;2022-12-29T10:05:22;95357.22;;;36.61;16.24
1926;BME280;964;42.606;23.588;2022-12-29T10:08:03;95356.72;;;36.63;16.29
1926;BME280;964;42.606;23.588;2022-12-29T10:10:36;95358.22;;;36.64;16.24
1926;BME280;964;42.606;23.588;2022-12-29T10:13:15;95360.22;;;35.93;17.70
1926;BME280;964;42.606;23.588;2022-12-29T10:15:53;95352.66;;;35.46;17.44
1926;BME280;964;42.606;23.588;2022-12-29T10:18:33;95348.31;;;36.24;17.35
1926;BME280;964;42.606;23.588;2022-12-29T10:21:05;95346.84;;;36.45;16.97
1926;BME280;964;42.606;23.588;2022-12-29T10:23:37;95338.28;;;35.30;17.54
1926;BME280;964;42.606;23.588;2022-12-29T10:26:09;95339.81;;;35.00;18.22
1926;BME280;964;42.606;23.588;2022-12-29T10:28:40;95339.91;;;35.96;17.07
1926;BME280;964;42.606;23.588;2022-12-29T10:31:13;95341.09;;;35.78;17.30
1926;BME280;964;42.606;23.588;2022-12-29T10:33:46;95324.13;;;36.02;17.08
1926;BME280;964;42.606;23.588;2022-12-29T10:36:19;95330.81;;;36.49;16.43
1926;BME280;964;42.606;23.588;2022-12-29T10:38:57;95324.47;;;36.26;17.05
1926;BME280;964;42.606;23.588;2022-12-29T10:41:30;95323.81;;;35.89;17.21
1926;BME280;964;42.606;23.588;2022-12-29T10:44:00;95330.16;;;35.53;18.10
1926;BME280;964;42.606;23.588;2022-12-29T10:46:30;95321.38;;;36.02;17.56
1926;BME280;964;42.606;23.588;2022-12-29T10:48:59;95321.34;;;35.91;17.19
1926;BME280;964;42.606;23.588;2022-12-29T10:51:31;95329.13;;;35.45;17.63
1926;BME280;964;42.606;23.588;2022-12-29T10:54:03;95313.91;;;36.19;17.80
1926;BME280;964;42.606;23.588;2022-12-29T10:56:34;95318.28;;;35.83;17.25
1926;BME280;964;42.606;23.588;2022-12-29T10:59:07;95311.78;;;35.81;17.60
1926;BME280;964;42.606;23.588;2022-12-29T11:01:42;95311.66;;;35.59;17.85
1926;BME280;964;42.606;23.588;2022-12-29T11:04:26;95306.72;;;35.31;18.06
1926;BME280;964;42.606;23.588;2022-12-29T11:06:59;95298.50;;;35.42;18.05
1926;BME280;964;42.606;23.588;2022-12-29T11:09:28;95303.72;;;34.98;17.92
1926;BME280;964;42.606;23.588;2022-12-29T11:11:56;95292.44;;;34.65;18.73
1926;BME280;964;42.606;23.588;2022-12-29T11:14:27;95291.22;;;34.66;19.04
1926;BME280;964;42.606;23.588;2022-12-29T11:16:57;95288.47;;;35.39;18.03
1926;BME280;964;42.606;23.588;2022-12-29T11:19:26;95291.19;;;35.34;18.00
1926;BME280;964;42.606;23.588;2022-12-29T11:21:54;95285.50;;;35.49;17.94
1926;BME280;964;42.606;23.588;2022-12-29T11:24:24;95289.72;;;35.81;17.50
1926;BME280;964;42.606;23.588;2022-12-29T11:26:52;95284.69;;;35.79;18.18
1926;BME280;964;42.606;23.588;2022-12-29T11:29:27;95279.88;;;36.56;17.06
1926;BME280;964;42.606;23.588;2022-12-29T11:31:56;95279.81;;;36.45;17.67
1926;BME280;964;42.606;23.588;2022-12-29T11:34:25;95269.56;;;37.06;16.76
1926;BME280;964;42.606;23.588;2022-12-29T11:36:57;95267.47;;;36.18;17.59
1926;BME280;964;42.606;23.588;2022-12-29T11:39:43;95274.81;;;34.25;19.00
1926;BME280;964;42.606;23.588;2022-12-29T11:42:21;95270.56;;;34.24;18.91
1926;BME280;964;42.606;23.588;2022-12-29T11:44:50;95265.50;;;35.11;18.47
1926;BME280;964;42.606;23.588;2022-12-29T11:47:25;95263.75;;;36.49;17.13
1926;BME280;964;42.606;23.588;2022-12-29T11:49:56;95266.22;;;35.06;18.19
1926;BME280;964;42.606;23.588;2022-12-29T11:52:25;95263.75;;;34.45;18.71
1926;BME280;964;42.606;23.588;2022-12-29T11:54:54;95263.19;;;35.41;18.25
1926;BME280;964;42.606;23.588;2022-12-29T11:57:22;95265.00;;;35.55;18.17
1926;BME280;964;42.606;23.588;2022-12-29T11:59:51;95257.97;;;36.13;17.54
1926;BME280;964;42.606;23.588;2022-12-29T12:02:40;95253.75;;;36.57;17.79
1926;BME280;964;42.606;23.588;2022-12-29T12:05:20;95243.50;;;37.65;16.74
1926;BME280;964;42.606;23.588;2022-12-29T12:07:51;95248.09;;;37.46;16.50
1926;BME280;964;42.606;23.588;2022-12-29T12:10:27;95236.69;;;37.71;16.25
1926;BME280;964;42.606;23.588;2022-12-29T12:13:01;95243.41;;;37.13;16.89
1926;BME280;964;42.606;23.588;2022-12-29T12:15:35;95245.16;;;37.21;17.06
1926;BME280;964;42.606;23.588;2022-12-29T12:18:09;95233.66;;;37.75;16.14
1926;BME280;964;42.606;23.588;2022-12-29T12:20:45;95237.00;;;37.57;16.50
1926;BME280;964;42.606;23.588;2022-12-29T12:23:19;95238.84;;;38.42;15.72
1926;BME280;964;42.606;23.588;2022-12-29T12:25:57;95237.84;;;37.98;16.02
1926;BME280;964;42.606;23.588;2022-12-29T12:28:32;95232.16;;;38.20;16.04
1926;BME280;964;42.606;23.588;2022-12-29T12:31:01;95220.69;;;39.24;15.35
1926;BME280;964;42.606;23.588;2022-12-29T12:33:33;95216.50;;;38.28;15.71
1926;BME280;964;42.606;23.588;2022-12-29T12:36:18;95233.06;;;37.30;16.37
1926;BME280;964;42.606;23.588;2022-12-29T12:38:54;95240.69;;;35.11;18.29
1926;BME280;964;42.606;23.588;2022-12-29T12:41:30;95260.75;;;32.38;20.68
1926;BME280;964;42.606;23.588;2022-12-29T12:44:07;95262.63;;;31.79;21.15
1926;BME280;964;42.606;23.588;2022-12-29T12:46:48;95253.34;;;32.29;20.33
1926;BME280;964;42.606;23.588;2022-12-29T12:49:48;95260.31;;;31.15;22.09
1926;BME280;964;42.606;23.588;2022-12-29T12:52:29;95270.97;;;29.65;23.41
1926;BME280;964;42.606;23.588;2022-12-29T12:55:13;95275.38;;;30.17;23.08
1926;BME280;964;42.606;23.588;2022-12-29T12:57:53;95269.69;;;30.39;22.49
1926;BME280;964;42.606;23.588;2022-12-29T13:00:22;95274.59;;;30.17;22.87
1926;BME280;964;42.606;23.588;2022-12-29T13:03:00;95272.19;;;29.74;23.58
1926;BME280;964;42.606;23.588;2022-12-29T13:05:38;95270.63;;;29.27;24.13
1926;BME280;964;42.606;23.588;2022-12-29T13:08:38;95273.53;;;29.33;23.88
1926;BME280;964;42.606;23.588;2022-12-29T13:11:18;95276.09;;;29.27;23.71
1926;BME280;964;42.606;23.588;2022-12-29T13:14:03;95279.09;;;29.20;23.81
1926;BME280;964;42.606;23.588;2022-12-29T13:16:40;95282.88;;;28.73;24.22
1926;BME280;964;42.606;23.588;2022-12-29T13:19:14;95282.84;;;28.12;25.30
1926;BME280;964;42.606;23.588;2022-12-29T13:21:54;95285.16;;;28.44;24.81
1926;BME280;964;42.606;23.588;2022-12-29T13:24:27;95287.81;;;28.66;24.53
1926;BME280;964;42.606;23.588;2022-12-29T13:27:04;95282.78;;;28.55;24.48
1926;BME280;964;42.606;23.588;2022-12-29T13:29:47;95293.88;;;28.39;24.82
1926;BME280;964;42.606;23.588;2022-12-29T13:32:23;95285.78;;;28.48;24.68
1926;BME280;964;42.606;23.588;2022-12-29T13:35:04;95291.78;;;28.43;24.77
1926;BME280;964;42.606;23.588;2022-12-29T13:37:39;95285.97;;;27.89;25.43
1926;BME280;964;42.606;23.588;2022-12-29T13:40:14;95294.78;;;26.99;26.41
1926;BME280;964;42.606;23.588;2022-12-29T13:42:42;95287.34;;;27.71;25.47
1926;BME280;964;42.606;23.588;2022-12-29T13:45:14;95288.66;;;27.07;26.50